Port Griffith, Pennsylvania
Current Conditions -  °F | °C
As of 4:54 PM on Wednesday 22 Oct 2014 (Local Time) from KAVP Reporting Station
Overcast Overcast  
Wind Chill: 52°   Ceiling: 1700
Heat Index: 52°   Visibility: 10mi
Dew Point: 46°   Wind: 14mph
Humidity: 80%   Direction: 360°N
Pressure: 29.97"   Gusts: NA
Location:  41.2973°N, 75.7399°W
Report Text: KAVP 222054Z 36012KT 10SM OVC017 11/08 A2997 RMK AO2 SLP147 60000 T01110078 56006
Loading
Personal Weather Stations






























Interactive Weather Map
Tropical Storm Tracking
New forecast layout! Learn more

10-Day Weather Forecast

Advertisements
Track Severe Weather on mobile